<?xml version="1.0" encoding="UTF-8"?>
<gpx creator="WikiLoc - http://www.wikiloc.com" version="1.1" xmlns="http://www.topografix.com/GPX/1/1">
    <trk>
        <name>DEMEGL  Monte Roldán-Bahía del Portús</name>
        <cmt>Intento de subir al monte Roldán, al mirador, pero llegué hasta la finca y no supe seguir.</cmt>
        <desc>Intento de subir al monte Roldán, al mirador, pero llegué hasta la finca y no supe seguir.</desc>
        <trkseg>
            <trkpt lat="37.613514" lon="-1.008402">
                <ele>22.250400</ele>
                <time>2009-03-21T09:34:23.000+01:00</time>
            </trkpt>
            <trkpt lat="37.613037" lon="-1.009418">
                <ele>24.384000</ele>
                <time>2009-03-21T09:34:43.000+01:00</time>
            </trkpt>
            <trkpt lat="37.612572" lon="-1.010410">
                <ele>25.603200</ele>
                <time>2009-03-21T09:35:04.000+01:00</time>
            </trkpt>
            <trkpt lat="37.612366" lon="-1.011030">
                <ele>25.298400</ele>
                <time>2009-03-21T09:35:17.000+01:00</time>
            </trkpt>
            <trkpt lat="37.612335" lon="-1.011418">
                <ele>27.127200</ele>
                <time>2009-03-21T09:35:25.000+01:00</time>
            </trkpt>
            <trkpt lat="37.612164" lon="-1.011552">
                <ele>28.041600</ele>
                <time>2009-03-21T09:35:31.000+01:00</time>
            </trkpt>
            <trkpt lat="37.611969" lon="-1.011657">
                <ele>29.870400</ele>
                <time>2009-03-21T09:35:38.000+01:00</time>
            </trkpt>
            <trkpt lat="37.611477" lon="-1.012635">
                <ele>36.271200</ele>
                <time>2009-03-21T09:36:07.000+01:00</time>
            </trkpt>
            <trkpt lat="37.611053" lon="-1.013678">
                <ele>32.004000</ele>
                <time>2009-03-21T09:36:32.000+01:00</time>
            </trkpt>
            <trkpt lat="37.610641" lon="-1.014587">
                <ele>34.137600</ele>
                <time>2009-03-21T09:36:58.000+01:00</time>
            </trkpt>
            <trkpt lat="37.610477" lon="-1.014862">
                <ele>35.966400</ele>
                <time>2009-03-21T09:37:07.000+01:00</time>
            </trkpt>
            <trkpt lat="37.609985" lon="-1.015873">
                <ele>44.196000</ele>
                <time>2009-03-21T09:37:35.000+01:00</time>
            </trkpt>
            <trkpt lat="37.609520" lon="-1.016868">
                <ele>45.110400</ele>
                <time>2009-03-21T09:37:59.000+01:00</time>
            </trkpt>
            <trkpt lat="37.609081" lon="-1.017893">
                <ele>39.014400</ele>
                <time>2009-03-21T09:38:19.000+01:00</time>
            </trkpt>
            <trkpt lat="37.608585" lon="-1.018857">
                <ele>43.281600</ele>
                <time>2009-03-21T09:38:41.000+01:00</time>
            </trkpt>
            <trkpt lat="37.608200" lon="-1.019465">
                <ele>50.901600</ele>
                <time>2009-03-21T09:38:59.000+01:00</time>
            </trkpt>
            <trkpt lat="37.608032" lon="-1.019658">
                <ele>50.596800</ele>
                <time>2009-03-21T09:39:05.000+01:00</time>
            </trkpt>
            <trkpt lat="37.607540" lon="-1.020653">
                <ele>45.720000</ele>
                <time>2009-03-21T09:39:25.000+01:00</time>
            </trkpt>
            <trkpt lat="37.606884" lon="-1.021523">
                <ele>46.024800</ele>
                <time>2009-03-21T09:39:49.000+01:00</time>
            </trkpt>
            <trkpt lat="37.606346" lon="-1.022215">
                <ele>45.415200</ele>
                <time>2009-03-21T09:40:08.000+01:00</time>
            </trkpt>
            <trkpt lat="37.605873" lon="-1.023195">
                <ele>37.490400</ele>
                <time>2009-03-21T09:40:30.000+01:00</time>
            </trkpt>
            <trkpt lat="37.605270" lon="-1.024050">
                <ele>46.024800</ele>
                <time>2009-03-21T09:40:57.000+01:00</time>
            </trkpt>
            <trkpt lat="37.604687" lon="-1.024982">
                <ele>58.216800</ele>
                <time>2009-03-21T09:41:32.000+01:00</time>
            </trkpt>
            <trkpt lat="37.604149" lon="-1.025903">
                <ele>60.350400</ele>
                <time>2009-03-21T09:42:00.000+01:00</time>
            </trkpt>
            <trkpt lat="37.603539" lon="-1.026770">
                <ele>67.665600</ele>
                <time>2009-03-21T09:42:29.000+01:00</time>
            </trkpt>
            <trkpt lat="37.602894" lon="-1.027607">
                <ele>78.638400</ele>
                <time>2009-03-21T09:43:05.000+01:00</time>
            </trkpt>
            <trkpt lat="37.602337" lon="-1.028508">
                <ele>76.809600</ele>
                <time>2009-03-21T09:43:39.000+01:00</time>
            </trkpt>
            <trkpt lat="37.601734" lon="-1.029377">
                <ele>83.210400</ele>
                <time>2009-03-21T09:44:17.000+01:00</time>
            </trkpt>
            <trkpt lat="37.601341" lon="-1.029928">
                <ele>87.782400</ele>
                <time>2009-03-21T09:44:45.000+01:00</time>
            </trkpt>
            <trkpt lat="37.601322" lon="-1.030293">
                <ele>88.392000</ele>
                <time>2009-03-21T09:44:58.000+01:00</time>
            </trkpt>
            <trkpt lat="37.601357" lon="-1.030368">
                <ele>89.306400</ele>
                <time>2009-03-21T09:45:02.000+01:00</time>
            </trkpt>
            <trkpt lat="37.601437" lon="-1.030452">
                <ele>88.392000</ele>
                <time>2009-03-21T09:45:09.000+01:00</time>
            </trkpt>
            <trkpt lat="37.601479" lon="-1.030645">
                <ele>86.258400</ele>
                <time>2009-03-21T09:45:18.000+01:00</time>
            </trkpt>
            <trkpt lat="37.601490" lon="-1.030652">
                <ele>86.258400</ele>
                <time>2009-03-21T09:45:19.000+01:00</time>
            </trkpt>
            <trkpt lat="37.601505" lon="-1.030657">
                <ele>86.563200</ele>
                <time>2009-03-21T09:45:20.000+01:00</time>
            </trkpt>
            <trkpt lat="37.601536" lon="-1.030673">
                <ele>86.563200</ele>
                <time>2009-03-21T09:45:22.000+01:00</time>
            </trkpt>
            <trkpt lat="37.601734" lon="-1.031037">
                <ele>90.830400</ele>
                <time>2009-03-21T09:45:42.000+01:00</time>
            </trkpt>
            <trkpt lat="37.601784" lon="-1.031147">
                <ele>90.830400</ele>
                <time>2009-03-21T09:45:47.000+01:00</time>
            </trkpt>
            <trkpt lat="37.601833" lon="-1.031232">
                <ele>90.220800</ele>
                <time>2009-03-21T09:45:50.000+01:00</time>
            </trkpt>
            <trkpt lat="37.602318" lon="-1.032213">
                <ele>89.611200</ele>
                <time>2009-03-21T09:46:27.000+01:00</time>
            </trkpt>
            <trkpt lat="37.602829" lon="-1.033177">
                <ele>91.744800</ele>
                <time>2009-03-21T09:47:02.000+01:00</time>
            </trkpt>
            <trkpt lat="37.602890" lon="-1.033385">
                <ele>90.830400</ele>
                <time>2009-03-21T09:47:09.000+01:00</time>
            </trkpt>
            <trkpt lat="37.602863" lon="-1.033593">
                <ele>89.916000</ele>
                <time>2009-03-21T09:47:15.000+01:00</time>
            </trkpt>
            <trkpt lat="37.602768" lon="-1.033855">
                <ele>94.183200</ele>
                <time>2009-03-21T09:47:28.000+01:00</time>
            </trkpt>
            <trkpt lat="37.602882" lon="-1.034135">
                <ele>93.878400</ele>
                <time>2009-03-21T09:47:35.000+01:00</time>
            </trkpt>
            <trkpt lat="37.603020" lon="-1.034180">
                <ele>93.878400</ele>
                <time>2009-03-21T09:47:38.000+01:00</time>
            </trkpt>
            <trkpt lat="37.603519" lon="-1.034100">
                <ele>93.573600</ele>
                <time>2009-03-21T09:47:46.000+01:00</time>
            </trkpt>
            <trkpt lat="37.603649" lon="-1.034233">
                <ele>88.392000</ele>
                <time>2009-03-21T09:47:49.000+01:00</time>
            </trkpt>
            <trkpt lat="37.603680" lon="-1.034900">
                <ele>88.696800</ele>
                <time>2009-03-21T09:48:04.000+01:00</time>
            </trkpt>
            <trkpt lat="37.603668" lon="-1.034915">
                <ele>88.696800</ele>
                <time>2009-03-21T09:48:05.000+01:00</time>
            </trkpt>
            <trkpt lat="37.603611" lon="-1.034925">
                <ele>88.696800</ele>
                <time>2009-03-21T09:48:08.000+01:00</time>
            </trkpt>
            <trkpt lat="37.603298" lon="-1.035017">
                <ele>86.258400</ele>
                <time>2009-03-21T09:48:21.000+01:00</time>
            </trkpt>
            <trkpt lat="37.603191" lon="-1.035097">
                <ele>95.402400</ele>
                <time>2009-03-21T09:48:30.000+01:00</time>
            </trkpt>
            <trkpt lat="37.602272" lon="-1.035112">
                <ele>105.460800</ele>
                <time>2009-03-21T09:49:17.000+01:00</time>
            </trkpt>
            <trkpt lat="37.601360" lon="-1.035120">
                <ele>109.423200</ele>
                <time>2009-03-21T09:49:59.000+01:00</time>
            </trkpt>
            <trkpt lat="37.601097" lon="-1.035295">
                <ele>112.776000</ele>
                <time>2009-03-21T09:50:14.000+01:00</time>
            </trkpt>
            <trkpt lat="37.600986" lon="-1.035270">
                <ele>117.652800</ele>
                <time>2009-03-21T09:50:22.000+01:00</time>
            </trkpt>
            <trkpt lat="37.600906" lon="-1.035190">
                <ele>124.053600</ele>
                <time>2009-03-21T09:50:31.000+01:00</time>
            </trkpt>
            <trkpt lat="37.600788" lon="-1.035028">
                <ele>129.844800</ele>
                <time>2009-03-21T09:50:41.000+01:00</time>
            </trkpt>
            <trkpt lat="37.600731" lon="-1.034998">
                <ele>130.454400</ele>
                <time>2009-03-21T09:50:44.000+01:00</time>
            </trkpt>
            <trkpt lat="37.600689" lon="-1.034965">
                <ele>132.892800</ele>
                <time>2009-03-21T09:50:47.000+01:00</time>
            </trkpt>
            <trkpt lat="37.600479" lon="-1.034847">
                <ele>140.208000</ele>
                <time>2009-03-21T09:51:01.000+01:00</time>
            </trkpt>
            <trkpt lat="37.600117" lon="-1.034807">
                <ele>132.892800</ele>
                <time>2009-03-21T09:51:19.000+01:00</time>
            </trkpt>
            <trkpt lat="37.599354" lon="-1.035365">
                <ele>125.272800</ele>
                <time>2009-03-21T09:52:04.000+01:00</time>
            </trkpt>
            <trkpt lat="37.598461" lon="-1.035602">
                <ele>126.492000</ele>
                <time>2009-03-21T09:52:52.000+01:00</time>
            </trkpt>
            <trkpt lat="37.597832" lon="-1.036017">
                <ele>128.320800</ele>
                <time>2009-03-21T09:53:31.000+01:00</time>
            </trkpt>
            <trkpt lat="37.597755" lon="-1.036128">
                <ele>128.930400</ele>
                <time>2009-03-21T09:53:38.000+01:00</time>
            </trkpt>
            <trkpt lat="37.597061" lon="-1.036673">
                <ele>137.160000</ele>
                <time>2009-03-21T09:54:26.000+01:00</time>
            </trkpt>
            <trkpt lat="37.596874" lon="-1.037300">
                <ele>149.047200</ele>
                <time>2009-03-21T09:55:01.000+01:00</time>
            </trkpt>
            <trkpt lat="37.596809" lon="-1.037403">
                <ele>155.448000</ele>
                <time>2009-03-21T09:55:09.000+01:00</time>
            </trkpt>
            <trkpt lat="37.596760" lon="-1.037523">
                <ele>147.523200</ele>
                <time>2009-03-21T09:55:22.000+01:00</time>
            </trkpt>
            <trkpt lat="37.596737" lon="-1.037610">
                <ele>148.132800</ele>
                <time>2009-03-21T09:56:28.000+01:00</time>
            </trkpt>
            <trkpt lat="37.596691" lon="-1.037568">
                <ele>148.742400</ele>
                <time>2009-03-21T09:56:31.000+01:00</time>
            </trkpt>
            <trkpt lat="37.596481" lon="-1.037207">
                <ele>165.201600</ele>
                <time>2009-03-21T09:57:05.000+01:00</time>
            </trkpt>
            <trkpt lat="37.596409" lon="-1.036972">
                <ele>169.773600</ele>
                <time>2009-03-21T09:57:23.000+01:00</time>
            </trkpt>
            <trkpt lat="37.596401" lon="-1.036962">
                <ele>169.468800</ele>
                <time>2009-03-21T09:57:24.000+01:00</time>
            </trkpt>
            <trkpt lat="37.596371" lon="-1.036877">
                <ele>168.554400</ele>
                <time>2009-03-21T09:57:28.000+01:00</time>
            </trkpt>
            <trkpt lat="37.596336" lon="-1.036678">
                <ele>168.554400</ele>
                <time>2009-03-21T09:57:38.000+01:00</time>
            </trkpt>
            <trkpt lat="37.596344" lon="-1.036297">
                <ele>165.201600</ele>
                <time>2009-03-21T09:58:00.000+01:00</time>
            </trkpt>
            <trkpt lat="37.596340" lon="-1.036245">
                <ele>165.811200</ele>
                <time>2009-03-21T09:58:02.000+01:00</time>
            </trkpt>
            <trkpt lat="37.596317" lon="-1.036203">
                <ele>165.506400</ele>
                <time>2009-03-21T09:58:05.000+01:00</time>
            </trkpt>
            <trkpt lat="37.595982" lon="-1.036592">
                <ele>168.554400</ele>
                <time>2009-03-21T09:58:50.000+01:00</time>
            </trkpt>
            <trkpt lat="37.595695" lon="-1.036958">
                <ele>177.698400</ele>
                <time>2009-03-21T09:59:48.000+01:00</time>
            </trkpt>
            <trkpt lat="37.595585" lon="-1.037015">
                <ele>179.527200</ele>
                <time>2009-03-21T09:59:57.000+01:00</time>
            </trkpt>
            <trkpt lat="37.595310" lon="-1.037045">
                <ele>187.147200</ele>
                <time>2009-03-21T10:00:19.000+01:00</time>
            </trkpt>
            <trkpt lat="37.595184" lon="-1.037224">
                <ele>188.976000</ele>
                <time>2009-03-21T18:28:50.900+01:00</time>
            </trkpt>
            <trkpt lat="37.595198" lon="-1.037562">
                <ele>190.500000</ele>
                <time>2009-03-21T18:29:01.700+01:00</time>
            </trkpt>
            <trkpt lat="37.595254" lon="-1.037882">
                <ele>193.548000</ele>
                <time>2009-03-21T18:29:32.900+01:00</time>
            </trkpt>
            <trkpt lat="37.595071" lon="-1.038131">
                <ele>195.072000</ele>
                <time>2009-03-21T18:29:32.000+01:00</time>
            </trkpt>
            <trkpt lat="37.594860" lon="-1.038291">
                <ele>196.596000</ele>
                <time>2009-03-21T18:30:13.100+01:00</time>
            </trkpt>
            <trkpt lat="37.594607" lon="-1.038505">
                <ele>199.644000</ele>
                <time>2009-03-21T18:30:19.600+01:00</time>
            </trkpt>
            <trkpt lat="37.594522" lon="-1.038807">
                <ele>201.168000</ele>
                <time>2009-03-21T18:30:32.400+01:00</time>
            </trkpt>
            <trkpt lat="37.594466" lon="-1.039038">
                <ele>202.692000</ele>
                <time>2009-03-21T18:30:44.700+01:00</time>
            </trkpt>
            <trkpt lat="37.594325" lon="-1.039198">
                <ele>205.740000</ele>
                <time>2009-03-21T18:30:47.500+01:00</time>
            </trkpt>
            <trkpt lat="37.594227" lon="-1.039341">
                <ele>207.264000</ele>
                <time>2009-03-21T18:30:56.500+01:00</time>
            </trkpt>
            <trkpt lat="37.593931" lon="-1.039661">
                <ele>208.788000</ele>
                <time>2009-03-21T18:31:01.300+01:00</time>
            </trkpt>
            <trkpt lat="37.593664" lon="-1.039661">
                <ele>0.000000</ele>
                <time>2009-03-21T18:31:07.200+01:00</time>
            </trkpt>
            <trkpt lat="37.593537" lon="-1.039875">
                <ele>0.000000</ele>
                <time>2009-03-21T18:31:48.200+01:00</time>
            </trkpt>
            <trkpt lat="37.593397" lon="-1.040284">
                <ele>0.000000</ele>
                <time>2009-03-21T18:32:01.400+01:00</time>
            </trkpt>
            <trkpt lat="37.593312" lon="-1.040622">
                <ele>0.000000</ele>
                <time>2009-03-21T18:32:10.400+01:00</time>
            </trkpt>
            <trkpt lat="37.593143" lon="-1.040942">
                <ele>0.000000</ele>
                <time>2009-03-21T18:32:14.600+01:00</time>
            </trkpt>
            <trkpt lat="37.593017" lon="-1.041262">
                <ele>0.000000</ele>
                <time>2009-03-21T18:32:22.100+01:00</time>
            </trkpt>
            <trkpt lat="37.592876" lon="-1.041582">
                <ele>0.000000</ele>
                <time>2009-03-21T18:32:33.300+01:00</time>
            </trkpt>
            <trkpt lat="37.592862" lon="-1.041707">
                <ele>0.000000</ele>
                <time>2009-03-21T18:32:45.900+01:00</time>
            </trkpt>
            <trkpt lat="37.592862" lon="-1.041707">
                <ele>234.696000</ele>
                <time>2009-03-21T10:09:31.000+01:00</time>
            </trkpt>
            <trkpt lat="37.592731" lon="-1.042252">
                <ele>237.439200</ele>
                <time>2009-03-21T10:10:37.000+01:00</time>
            </trkpt>
            <trkpt lat="37.592621" lon="-1.042882">
                <ele>253.898400</ele>
                <time>2009-03-21T10:11:22.000+01:00</time>
            </trkpt>
            <trkpt lat="37.592106" lon="-1.043852">
                <ele>264.261600</ele>
                <time>2009-03-21T10:13:40.000+01:00</time>
            </trkpt>
            <trkpt lat="37.591850" lon="-1.044165">
                <ele>256.641600</ele>
                <time>2009-03-21T10:16:08.000+01:00</time>
            </trkpt>
            <trkpt lat="37.591835" lon="-1.044185">
                <ele>257.251200</ele>
                <time>2009-03-21T10:16:10.000+01:00</time>
            </trkpt>
            <trkpt lat="37.591728" lon="-1.044302">
                <ele>262.432800</ele>
                <time>2009-03-21T10:16:20.000+01:00</time>
            </trkpt>
            <trkpt lat="37.591713" lon="-1.044280">
                <ele>263.652000</ele>
                <time>2009-03-21T10:16:22.000+01:00</time>
            </trkpt>
            <trkpt lat="37.591480" lon="-1.044275">
                <ele>264.871200</ele>
                <time>2009-03-21T10:16:43.000+01:00</time>
            </trkpt>
            <trkpt lat="37.591362" lon="-1.044288">
                <ele>264.871200</ele>
                <time>2009-03-21T10:17:09.000+01:00</time>
            </trkpt>
            <trkpt lat="37.591381" lon="-1.044295">
                <ele>263.652000</ele>
                <time>2009-03-21T10:17:11.000+01:00</time>
            </trkpt>
            <trkpt lat="37.591431" lon="-1.044292">
                <ele>262.128000</ele>
                <time>2009-03-21T10:17:15.000+01:00</time>
            </trkpt>
            <trkpt lat="37.591461" lon="-1.044290">
                <ele>261.213600</ele>
                <time>2009-03-21T10:17:17.000+01:00</time>
            </trkpt>
            <trkpt lat="37.591599" lon="-1.044243">
                <ele>258.165600</ele>
                <time>2009-03-21T10:17:24.000+01:00</time>
            </trkpt>
            <trkpt lat="37.591660" lon="-1.044272">
                <ele>257.556000</ele>
                <time>2009-03-21T10:17:27.000+01:00</time>
            </trkpt>
            <trkpt lat="37.591717" lon="-1.044287">
                <ele>256.641600</ele>
                <time>2009-03-21T10:17:30.000+01:00</time>
            </trkpt>
            <trkpt lat="37.591881" lon="-1.044165">
                <ele>259.384800</ele>
                <time>2009-03-21T10:17:41.000+01:00</time>
            </trkpt>
            <trkpt lat="37.592056" lon="-1.043893">
                <ele>257.251200</ele>
                <time>2009-03-21T10:17:52.000+01:00</time>
            </trkpt>
            <trkpt lat="37.592270" lon="-1.043668">
                <ele>255.727200</ele>
                <time>2009-03-21T10:18:05.000+01:00</time>
            </trkpt>
            <trkpt lat="37.592670" lon="-1.042645">
                <ele>240.792000</ele>
                <time>2009-03-21T10:19:17.000+01:00</time>
            </trkpt>
            <trkpt lat="37.592861" lon="-1.041460">
                <ele>215.798400</ele>
                <time>2009-03-21T10:19:48.000+01:00</time>
            </trkpt>
            <trkpt lat="37.593372" lon="-1.040443">
                <ele>204.825600</ele>
                <time>2009-03-21T10:20:05.000+01:00</time>
            </trkpt>
            <trkpt lat="37.593670" lon="-1.039593">
                <ele>195.681600</ele>
                <time>2009-03-21T10:20:23.000+01:00</time>
            </trkpt>
            <trkpt lat="37.593800" lon="-1.039603">
                <ele>195.376800</ele>
                <time>2009-03-21T10:20:26.000+01:00</time>
            </trkpt>
            <trkpt lat="37.593889" lon="-1.039625">
                <ele>194.767200</ele>
                <time>2009-03-21T10:20:29.000+01:00</time>
            </trkpt>
            <trkpt lat="37.594017" lon="-1.039557">
                <ele>193.548000</ele>
                <time>2009-03-21T10:20:31.000+01:00</time>
            </trkpt>
            <trkpt lat="37.594612" lon="-1.038517">
                <ele>191.719200</ele>
                <time>2009-03-21T10:20:54.000+01:00</time>
            </trkpt>
            <trkpt lat="37.594700" lon="-1.038405">
                <ele>190.500000</ele>
                <time>2009-03-21T10:20:56.000+01:00</time>
            </trkpt>
            <trkpt lat="37.595291" lon="-1.037828">
                <ele>183.489600</ele>
                <time>2009-03-21T10:21:11.000+01:00</time>
            </trkpt>
            <trkpt lat="37.595249" lon="-1.037622">
                <ele>181.356000</ele>
                <time>2009-03-21T10:21:14.000+01:00</time>
            </trkpt>
            <trkpt lat="37.595177" lon="-1.037213">
                <ele>179.222400</ele>
                <time>2009-03-21T10:21:19.000+01:00</time>
            </trkpt>
            <trkpt lat="37.595257" lon="-1.037008">
                <ele>177.698400</ele>
                <time>2009-03-21T10:21:22.000+01:00</time>
            </trkpt>
            <trkpt lat="37.595425" lon="-1.036953">
                <ele>175.260000</ele>
                <time>2009-03-21T10:21:26.000+01:00</time>
            </trkpt>
            <trkpt lat="37.595459" lon="-1.036953">
                <ele>174.650400</ele>
                <time>2009-03-21T10:21:27.000+01:00</time>
            </trkpt>
            <trkpt lat="37.595634" lon="-1.036988">
                <ele>170.992800</ele>
                <time>2009-03-21T10:21:33.000+01:00</time>
            </trkpt>
            <trkpt lat="37.595699" lon="-1.036952">
                <ele>170.383200</ele>
                <time>2009-03-21T10:21:35.000+01:00</time>
            </trkpt>
            <trkpt lat="37.596340" lon="-1.036042">
                <ele>157.276800</ele>
                <time>2009-03-21T10:21:59.000+01:00</time>
            </trkpt>
            <trkpt lat="37.596409" lon="-1.036018">
                <ele>156.362400</ele>
                <time>2009-03-21T10:22:01.000+01:00</time>
            </trkpt>
            <trkpt lat="37.596432" lon="-1.036040">
                <ele>155.752800</ele>
                <time>2009-03-21T10:22:02.000+01:00</time>
            </trkpt>
            <trkpt lat="37.596439" lon="-1.036075">
                <ele>155.143200</ele>
                <time>2009-03-21T10:22:03.000+01:00</time>
            </trkpt>
            <trkpt lat="37.596394" lon="-1.036187">
                <ele>154.533600</ele>
                <time>2009-03-21T10:22:06.000+01:00</time>
            </trkpt>
            <trkpt lat="37.596333" lon="-1.036448">
                <ele>153.924000</ele>
                <time>2009-03-21T10:22:11.000+01:00</time>
            </trkpt>
            <trkpt lat="37.596413" lon="-1.037327">
                <ele>149.047200</ele>
                <time>2009-03-21T10:22:25.000+01:00</time>
            </trkpt>
            <trkpt lat="37.596642" lon="-1.037643">
                <ele>142.341600</ele>
                <time>2009-03-21T10:22:33.000+01:00</time>
            </trkpt>
            <trkpt lat="37.596664" lon="-1.037642">
                <ele>142.036800</ele>
                <time>2009-03-21T10:22:34.000+01:00</time>
            </trkpt>
            <trkpt lat="37.596687" lon="-1.037615">
                <ele>142.036800</ele>
                <time>2009-03-21T10:22:35.000+01:00</time>
            </trkpt>
            <trkpt lat="37.596962" lon="-1.036985">
                <ele>142.341600</ele>
                <time>2009-03-21T10:22:48.000+01:00</time>
            </trkpt>
            <trkpt lat="37.597038" lon="-1.036645">
                <ele>139.598400</ele>
                <time>2009-03-21T10:22:53.000+01:00</time>
            </trkpt>
            <trkpt lat="37.597317" lon="-1.036498">
                <ele>137.769600</ele>
                <time>2009-03-21T10:22:58.000+01:00</time>
            </trkpt>
            <trkpt lat="37.597691" lon="-1.036332">
                <ele>133.197600</ele>
                <time>2009-03-21T10:23:04.000+01:00</time>
            </trkpt>
            <trkpt lat="37.598175" lon="-1.035733">
                <ele>124.968000</ele>
                <time>2009-03-21T10:23:14.000+01:00</time>
            </trkpt>
            <trkpt lat="37.599075" lon="-1.035353">
                <ele>119.176800</ele>
                <time>2009-03-21T10:23:29.000+01:00</time>
            </trkpt>
            <trkpt lat="37.599243" lon="-1.035363">
                <ele>117.957600</ele>
                <time>2009-03-21T10:23:32.000+01:00</time>
            </trkpt>
            <trkpt lat="37.599377" lon="-1.035317">
                <ele>116.738400</ele>
                <time>2009-03-21T10:23:35.000+01:00</time>
            </trkpt>
            <trkpt lat="37.600208" lon="-1.034838">
                <ele>110.947200</ele>
                <time>2009-03-21T10:23:49.000+01:00</time>
            </trkpt>
            <trkpt lat="37.600292" lon="-1.034835">
                <ele>115.519200</ele>
                <time>2009-03-21T10:24:12.000+01:00</time>
            </trkpt>
            <trkpt lat="37.600208" lon="-1.034840">
                <ele>116.738400</ele>
                <time>2009-03-21T10:24:17.000+01:00</time>
            </trkpt>
            <trkpt lat="37.600216" lon="-1.034810">
                <ele>109.728000</ele>
                <time>2009-03-21T10:24:28.000+01:00</time>
            </trkpt>
            <trkpt lat="37.600300" lon="-1.034807">
                <ele>109.728000</ele>
                <time>2009-03-21T10:24:32.000+01:00</time>
            </trkpt>
            <trkpt lat="37.600449" lon="-1.034842">
                <ele>108.204000</ele>
                <time>2009-03-21T10:24:40.000+01:00</time>
            </trkpt>
            <trkpt lat="37.600403" lon="-1.035038">
                <ele>121.920000</ele>
                <time>2009-03-21T10:48:58.000+01:00</time>
            </trkpt>
            <trkpt lat="37.600380" lon="-1.035113">
                <ele>122.224800</ele>
                <time>2009-03-21T10:49:01.000+01:00</time>
            </trkpt>
            <trkpt lat="37.600307" lon="-1.036263">
                <ele>124.358400</ele>
                <time>2009-03-21T10:49:37.000+01:00</time>
            </trkpt>
            <trkpt lat="37.600212" lon="-1.037352">
                <ele>112.166400</ele>
                <time>2009-03-21T10:50:32.000+01:00</time>
            </trkpt>
            <trkpt lat="37.600292" lon="-1.037525">
                <ele>111.252000</ele>
                <time>2009-03-21T10:50:39.000+01:00</time>
            </trkpt>
            <trkpt lat="37.600319" lon="-1.037602">
                <ele>110.337600</ele>
                <time>2009-03-21T10:50:42.000+01:00</time>
            </trkpt>
            <trkpt lat="37.600380" lon="-1.037813">
                <ele>108.508800</ele>
                <time>2009-03-21T10:50:52.000+01:00</time>
            </trkpt>
            <trkpt lat="37.600418" lon="-1.038250">
                <ele>103.022400</ele>
                <time>2009-03-21T10:51:06.000+01:00</time>
            </trkpt>
            <trkpt lat="37.601059" lon="-1.039072">
                <ele>105.460800</ele>
                <time>2009-03-21T10:52:47.000+01:00</time>
            </trkpt>
            <trkpt lat="37.601238" lon="-1.039248">
                <ele>106.680000</ele>
                <time>2009-03-21T10:52:59.000+01:00</time>
            </trkpt>
            <trkpt lat="37.601868" lon="-1.038963">
                <ele>102.412800</ele>
                <time>2009-03-21T10:53:17.000+01:00</time>
            </trkpt>
            <trkpt lat="37.602100" lon="-1.038472">
                <ele>99.974400</ele>
                <time>2009-03-21T10:53:35.000+01:00</time>
            </trkpt>
            <trkpt lat="37.602085" lon="-1.038418">
                <ele>99.669600</ele>
                <time>2009-03-21T10:53:38.000+01:00</time>
            </trkpt>
            <trkpt lat="37.602085" lon="-1.038345">
                <ele>99.974400</ele>
                <time>2009-03-21T10:53:41.000+01:00</time>
            </trkpt>
            <trkpt lat="37.602123" lon="-1.038265">
                <ele>99.669600</ele>
                <time>2009-03-21T10:53:44.000+01:00</time>
            </trkpt>
            <trkpt lat="37.602310" lon="-1.038128">
                <ele>98.145600</ele>
                <time>2009-03-21T10:53:49.000+01:00</time>
            </trkpt>
            <trkpt lat="37.602413" lon="-1.038125">
                <ele>97.536000</ele>
                <time>2009-03-21T10:53:51.000+01:00</time>
            </trkpt>
            <trkpt lat="37.602608" lon="-1.038168">
                <ele>96.316800</ele>
                <time>2009-03-21T10:53:55.000+01:00</time>
            </trkpt>
            <trkpt lat="37.603088" lon="-1.038002">
                <ele>93.573600</ele>
                <time>2009-03-21T10:54:06.000+01:00</time>
            </trkpt>
            <trkpt lat="37.603127" lon="-1.037898">
                <ele>92.964000</ele>
                <time>2009-03-21T10:54:08.000+01:00</time>
            </trkpt>
            <trkpt lat="37.603222" lon="-1.036642">
                <ele>89.306400</ele>
                <time>2009-03-21T10:54:29.000+01:00</time>
            </trkpt>
            <trkpt lat="37.603512" lon="-1.035530">
                <ele>83.515200</ele>
                <time>2009-03-21T10:54:41.000+01:00</time>
            </trkpt>
            <trkpt lat="37.603737" lon="-1.034837">
                <ele>83.820000</ele>
                <time>2009-03-21T10:54:56.000+01:00</time>
            </trkpt>
            <trkpt lat="37.603756" lon="-1.034845">
                <ele>83.515200</ele>
                <time>2009-03-21T10:54:57.000+01:00</time>
            </trkpt>
            <trkpt lat="37.603783" lon="-1.034905">
                <ele>84.124800</ele>
                <time>2009-03-21T10:54:59.000+01:00</time>
            </trkpt>
            <trkpt lat="37.604111" lon="-1.035617">
                <ele>90.525600</ele>
                <time>2009-03-21T10:55:12.000+01:00</time>
            </trkpt>
            <trkpt lat="37.604885" lon="-1.036262">
                <ele>90.525600</ele>
                <time>2009-03-21T10:55:28.000+01:00</time>
            </trkpt>
            <trkpt lat="37.605293" lon="-1.037297">
                <ele>91.744800</ele>
                <time>2009-03-21T10:55:47.000+01:00</time>
            </trkpt>
            <trkpt lat="37.605721" lon="-1.038343">
                <ele>87.172800</ele>
                <time>2009-03-21T10:56:05.000+01:00</time>
            </trkpt>
            <trkpt lat="37.606087" lon="-1.039383">
                <ele>88.392000</ele>
                <time>2009-03-21T10:56:26.000+01:00</time>
            </trkpt>
            <trkpt lat="37.605995" lon="-1.039803">
                <ele>88.087200</ele>
                <time>2009-03-21T10:56:36.000+01:00</time>
            </trkpt>
            <trkpt lat="37.605808" lon="-1.040442">
                <ele>88.087200</ele>
                <time>2009-03-21T10:56:48.000+01:00</time>
            </trkpt>
            <trkpt lat="37.605843" lon="-1.041607">
                <ele>102.108000</ele>
                <time>2009-03-21T10:57:19.000+01:00</time>
            </trkpt>
            <trkpt lat="37.605816" lon="-1.042767">
                <ele>93.878400</ele>
                <time>2009-03-21T10:57:46.000+01:00</time>
            </trkpt>
            <trkpt lat="37.605804" lon="-1.043938">
                <ele>90.220800</ele>
                <time>2009-03-21T10:58:09.000+01:00</time>
            </trkpt>
            <trkpt lat="37.605766" lon="-1.044483">
                <ele>91.135200</ele>
                <time>2009-03-21T10:58:21.000+01:00</time>
            </trkpt>
            <trkpt lat="37.605072" lon="-1.045212">
                <ele>85.039200</ele>
                <time>2009-03-21T10:58:40.000+01:00</time>
            </trkpt>
            <trkpt lat="37.604355" lon="-1.045893">
                <ele>90.525600</ele>
                <time>2009-03-21T10:59:15.000+01:00</time>
            </trkpt>
            <trkpt lat="37.604195" lon="-1.046515">
                <ele>92.354400</ele>
                <time>2009-03-21T10:59:36.000+01:00</time>
            </trkpt>
            <trkpt lat="37.603603" lon="-1.047390">
                <ele>98.145600</ele>
                <time>2009-03-21T11:00:15.000+01:00</time>
            </trkpt>
            <trkpt lat="37.603100" lon="-1.048342">
                <ele>106.070400</ele>
                <time>2009-03-21T11:00:56.000+01:00</time>
            </trkpt>
            <trkpt lat="37.602646" lon="-1.049365">
                <ele>111.252000</ele>
                <time>2009-03-21T11:01:39.000+01:00</time>
            </trkpt>
            <trkpt lat="37.602207" lon="-1.050227">
                <ele>111.252000</ele>
                <time>2009-03-21T11:02:23.000+01:00</time>
            </trkpt>
            <trkpt lat="37.601707" lon="-1.050768">
                <ele>114.300000</ele>
                <time>2009-03-21T11:03:05.000+01:00</time>
            </trkpt>
            <trkpt lat="37.601528" lon="-1.051047">
                <ele>115.214400</ele>
                <time>2009-03-21T11:03:18.000+01:00</time>
            </trkpt>
            <trkpt lat="37.600842" lon="-1.051420">
                <ele>119.786400</ele>
                <time>2009-03-21T11:03:55.000+01:00</time>
            </trkpt>
            <trkpt lat="37.599930" lon="-1.051450">
                <ele>126.187200</ele>
                <time>2009-03-21T11:04:44.000+01:00</time>
            </trkpt>
            <trkpt lat="37.599026" lon="-1.051588">
                <ele>138.988800</ele>
                <time>2009-03-21T11:05:44.000+01:00</time>
            </trkpt>
            <trkpt lat="37.598309" lon="-1.051993">
                <ele>147.218400</ele>
                <time>2009-03-21T11:06:31.000+01:00</time>
            </trkpt>
            <trkpt lat="37.598274" lon="-1.052093">
                <ele>149.047200</ele>
                <time>2009-03-21T11:06:37.000+01:00</time>
            </trkpt>
            <trkpt lat="37.598297" lon="-1.052218">
                <ele>151.485600</ele>
                <time>2009-03-21T11:06:44.000+01:00</time>
            </trkpt>
            <trkpt lat="37.598358" lon="-1.052350">
                <ele>155.752800</ele>
                <time>2009-03-21T11:06:54.000+01:00</time>
            </trkpt>
            <trkpt lat="37.598343" lon="-1.052413">
                <ele>156.057600</ele>
                <time>2009-03-21T11:06:58.000+01:00</time>
            </trkpt>
            <trkpt lat="37.598011" lon="-1.052958">
                <ele>160.934400</ele>
                <time>2009-03-21T11:07:36.000+01:00</time>
            </trkpt>
            <trkpt lat="37.598038" lon="-1.052968">
                <ele>165.506400</ele>
                <time>2009-03-21T11:11:22.000+01:00</time>
            </trkpt>
            <trkpt lat="37.597481" lon="-1.054117">
                <ele>156.362400</ele>
                <time>2009-03-21T11:11:51.000+01:00</time>
            </trkpt>
            <trkpt lat="37.597267" lon="-1.054968">
                <ele>146.304000</ele>
                <time>2009-03-21T11:12:00.000+01:00</time>
            </trkpt>
            <trkpt lat="37.597248" lon="-1.056213">
                <ele>130.149600</ele>
                <time>2009-03-21T11:12:16.000+01:00</time>
            </trkpt>
            <trkpt lat="37.597027" lon="-1.057360">
                <ele>116.433600</ele>
                <time>2009-03-21T11:12:26.000+01:00</time>
            </trkpt>
            <trkpt lat="37.596962" lon="-1.058583">
                <ele>105.156000</ele>
                <time>2009-03-21T11:12:37.000+01:00</time>
            </trkpt>
            <trkpt lat="37.596794" lon="-1.059402">
                <ele>98.450400</ele>
                <time>2009-03-21T11:12:45.000+01:00</time>
            </trkpt>
            <trkpt lat="37.596432" lon="-1.060527">
                <ele>94.183200</ele>
                <time>2009-03-21T11:12:57.000+01:00</time>
            </trkpt>
            <trkpt lat="37.596390" lon="-1.061495">
                <ele>92.049600</ele>
                <time>2009-03-21T11:13:10.000+01:00</time>
            </trkpt>
            <trkpt lat="37.596809" lon="-1.062573">
                <ele>84.124800</ele>
                <time>2009-03-21T11:13:23.000+01:00</time>
            </trkpt>
            <trkpt lat="37.597256" lon="-1.063367">
                <ele>77.724000</ele>
                <time>2009-03-21T11:13:33.000+01:00</time>
            </trkpt>
            <trkpt lat="37.597206" lon="-1.063773">
                <ele>0.000000</ele>
                <time>2009-03-21T11:13:44.000+01:00</time>
            </trkpt>
            <trkpt lat="37.596909" lon="-1.063915">
                <ele>71.018400</ele>
                <time>2009-03-21T11:13:51.000+01:00</time>
            </trkpt>
            <trkpt lat="37.596291" lon="-1.064603">
                <ele>72.542400</ele>
                <time>2009-03-21T11:15:23.000+01:00</time>
            </trkpt>
            <trkpt lat="37.596088" lon="-1.065560">
                <ele>66.141600</ele>
                <time>2009-03-21T11:15:35.000+01:00</time>
            </trkpt>
            <trkpt lat="37.595909" lon="-1.065832">
                <ele>64.008000</ele>
                <time>2009-03-21T11:15:39.000+01:00</time>
            </trkpt>
            <trkpt lat="37.595875" lon="-1.066018">
                <ele>63.703200</ele>
                <time>2009-03-21T11:15:43.000+01:00</time>
            </trkpt>
            <trkpt lat="37.595547" lon="-1.066267">
                <ele>62.484000</ele>
                <time>2009-03-21T11:16:15.000+01:00</time>
            </trkpt>
            <trkpt lat="37.595390" lon="-1.066332">
                <ele>60.655200</ele>
                <time>2009-03-21T11:16:18.000+01:00</time>
            </trkpt>
            <trkpt lat="37.595348" lon="-1.066485">
                <ele>60.045600</ele>
                <time>2009-03-21T11:16:20.000+01:00</time>
            </trkpt>
            <trkpt lat="37.595428" lon="-1.067047">
                <ele>55.473600</ele>
                <time>2009-03-21T11:16:26.000+01:00</time>
            </trkpt>
            <trkpt lat="37.595669" lon="-1.067875">
                <ele>45.110400</ele>
                <time>2009-03-21T11:16:37.000+01:00</time>
            </trkpt>
            <trkpt lat="37.595367" lon="-1.068630">
                <ele>39.319200</ele>
                <time>2009-03-21T11:16:46.000+01:00</time>
            </trkpt>
            <trkpt lat="37.595505" lon="-1.069820">
                <ele>36.880800</ele>
                <time>2009-03-21T11:17:00.000+01:00</time>
            </trkpt>
            <trkpt lat="37.595387" lon="-1.070135">
                <ele>36.576000</ele>
                <time>2009-03-21T11:17:04.000+01:00</time>
            </trkpt>
            <trkpt lat="37.595310" lon="-1.070473">
                <ele>35.661600</ele>
                <time>2009-03-21T11:17:08.000+01:00</time>
            </trkpt>
            <trkpt lat="37.595299" lon="-1.070992">
                <ele>35.661600</ele>
                <time>2009-03-21T11:17:15.000+01:00</time>
            </trkpt>
            <trkpt lat="37.595272" lon="-1.071002">
                <ele>35.661600</ele>
                <time>2009-03-21T11:17:16.000+01:00</time>
            </trkpt>
            <trkpt lat="37.595249" lon="-1.070983">
                <ele>35.052000</ele>
                <time>2009-03-21T11:17:17.000+01:00</time>
            </trkpt>
            <trkpt lat="37.595131" lon="-1.070873">
                <ele>32.308800</ele>
                <time>2009-03-21T11:17:22.000+01:00</time>
            </trkpt>
            <trkpt lat="37.594788" lon="-1.070772">
                <ele>28.346400</ele>
                <time>2009-03-21T11:17:34.000+01:00</time>
            </trkpt>
            <trkpt lat="37.594082" lon="-1.070128">
                <ele>24.079200</ele>
                <time>2009-03-21T11:17:58.000+01:00</time>
            </trkpt>
            <trkpt lat="37.593922" lon="-1.070078">
                <ele>23.774400</ele>
                <time>2009-03-21T11:18:04.000+01:00</time>
            </trkpt>
            <trkpt lat="37.593464" lon="-1.070002">
                <ele>22.250400</ele>
                <time>2009-03-21T11:18:24.000+01:00</time>
            </trkpt>
            <trkpt lat="37.592556" lon="-1.070185">
                <ele>20.116800</ele>
                <time>2009-03-21T11:18:43.000+01:00</time>
            </trkpt>
            <trkpt lat="37.591652" lon="-1.070040">
                <ele>18.592800</ele>
                <time>2009-03-21T11:19:02.000+01:00</time>
            </trkpt>
            <trkpt lat="37.590744" lon="-1.069972">
                <ele>13.411200</ele>
                <time>2009-03-21T11:19:20.000+01:00</time>
            </trkpt>
            <trkpt lat="37.589916" lon="-1.069395">
                <ele>14.325600</ele>
                <time>2009-03-21T11:19:45.000+01:00</time>
            </trkpt>
            <trkpt lat="37.589226" lon="-1.068632">
                <ele>13.106400</ele>
                <time>2009-03-21T11:20:12.000+01:00</time>
            </trkpt>
            <trkpt lat="37.588806" lon="-1.067592">
                <ele>8.839200</ele>
                <time>2009-03-21T11:20:33.000+01:00</time>
            </trkpt>
            <trkpt lat="37.588428" lon="-1.067123">
                <ele>9.753600</ele>
                <time>2009-03-21T11:20:46.000+01:00</time>
            </trkpt>
            <trkpt lat="37.588184" lon="-1.067013">
                <ele>8.534400</ele>
                <time>2009-03-21T11:20:52.000+01:00</time>
            </trkpt>
            <trkpt lat="37.587902" lon="-1.067157">
                <ele>8.534400</ele>
                <time>2009-03-21T11:21:01.000+01:00</time>
            </trkpt>
            <trkpt lat="37.587330" lon="-1.067572">
                <ele>5.486400</ele>
                <time>2009-03-21T11:21:16.000+01:00</time>
            </trkpt>
            <trkpt lat="37.586544" lon="-1.067942">
                <ele>7.010400</ele>
                <time>2009-03-21T11:21:37.000+01:00</time>
            </trkpt>
            <trkpt lat="37.586166" lon="-1.068268">
                <ele>7.315200</ele>
                <time>2009-03-21T11:21:50.000+01:00</time>
            </trkpt>
            <trkpt lat="37.585960" lon="-1.068405">
                <ele>7.010400</ele>
                <time>2009-03-21T11:21:56.000+01:00</time>
            </trkpt>
            <trkpt lat="37.585140" lon="-1.068905">
                <ele>4.267200</ele>
                <time>2009-03-21T11:22:15.000+01:00</time>
            </trkpt>
            <trkpt lat="37.584240" lon="-1.069383">
                <ele>5.486400</ele>
                <time>2009-03-21T11:22:36.000+01:00</time>
            </trkpt>
            <trkpt lat="37.583435" lon="-1.069912">
                <ele>4.876800</ele>
                <time>2009-03-21T11:22:59.000+01:00</time>
            </trkpt>
            <trkpt lat="37.583370" lon="-1.069968">
                <ele>6.705600</ele>
                <time>2009-03-21T11:23:03.000+01:00</time>
            </trkpt>
            <trkpt lat="37.583462" lon="-1.070088">
                <ele>17.373600</ele>
                <time>2009-03-21T11:26:13.000+01:00</time>
            </trkpt>
            <trkpt lat="37.583271" lon="-1.070068">
                <ele>26.212800</ele>
                <time>2009-03-21T11:28:46.000+01:00</time>
            </trkpt>
            <trkpt lat="37.583408" lon="-1.070037">
                <ele>7.924800</ele>
                <time>2009-03-21T11:33:36.000+01:00</time>
            </trkpt>
            <trkpt lat="37.583645" lon="-1.069797">
                <ele>2.743200</ele>
                <time>2009-03-21T11:35:09.000+01:00</time>
            </trkpt>
            <trkpt lat="37.583614" lon="-1.069808">
                <ele>12.496800</ele>
                <time>2009-03-21T11:35:43.000+01:00</time>
            </trkpt>
            <trkpt lat="37.584412" lon="-1.069275">
                <ele>8.534400</ele>
                <time>2009-03-21T11:36:27.000+01:00</time>
            </trkpt>
            <trkpt lat="37.585262" lon="-1.068838">
                <ele>7.924800</ele>
                <time>2009-03-21T11:36:53.000+01:00</time>
            </trkpt>
            <trkpt lat="37.586090" lon="-1.068267">
                <ele>7.924800</ele>
                <time>2009-03-21T11:37:23.000+01:00</time>
            </trkpt>
            <trkpt lat="37.586563" lon="-1.067923">
                <ele>5.791200</ele>
                <time>2009-03-21T11:37:39.000+01:00</time>
            </trkpt>
            <trkpt lat="37.586948" lon="-1.067627">
                <ele>5.791200</ele>
                <time>2009-03-21T11:37:51.000+01:00</time>
            </trkpt>
            <trkpt lat="37.587635" lon="-1.067413">
                <ele>5.181600</ele>
                <time>2009-03-21T11:38:08.000+01:00</time>
            </trkpt>
            <trkpt lat="37.588200" lon="-1.067012">
                <ele>7.010400</ele>
                <time>2009-03-21T11:38:29.000+01:00</time>
            </trkpt>
            <trkpt lat="37.588223" lon="-1.067012">
                <ele>7.010400</ele>
                <time>2009-03-21T11:38:30.000+01:00</time>
            </trkpt>
            <trkpt lat="37.588440" lon="-1.067108">
                <ele>16.154400</ele>
                <time>2009-03-21T11:38:39.000+01:00</time>
            </trkpt>
            <trkpt lat="37.588783" lon="-1.067608">
                <ele>18.592800</ele>
                <time>2009-03-21T11:38:56.000+01:00</time>
            </trkpt>
            <trkpt lat="37.589199" lon="-1.068630">
                <ele>17.678400</ele>
                <time>2009-03-21T11:39:27.000+01:00</time>
            </trkpt>
            <trkpt lat="37.589394" lon="-1.068890">
                <ele>19.507200</ele>
                <time>2009-03-21T11:39:35.000+01:00</time>
            </trkpt>
            <trkpt lat="37.590130" lon="-1.069572">
                <ele>18.592800</ele>
                <time>2009-03-21T11:40:10.000+01:00</time>
            </trkpt>
            <trkpt lat="37.590820" lon="-1.070018">
                <ele>18.592800</ele>
                <time>2009-03-21T11:40:37.000+01:00</time>
            </trkpt>
            <trkpt lat="37.590923" lon="-1.070033">
                <ele>18.592800</ele>
                <time>2009-03-21T11:40:41.000+01:00</time>
            </trkpt>
            <trkpt lat="37.591270" lon="-1.069952">
                <ele>16.154400</ele>
                <time>2009-03-21T11:40:56.000+01:00</time>
            </trkpt>
            <trkpt lat="37.591976" lon="-1.070113">
                <ele>18.592800</ele>
                <time>2009-03-21T11:41:26.000+01:00</time>
            </trkpt>
            <trkpt lat="37.592026" lon="-1.070118">
                <ele>18.592800</ele>
                <time>2009-03-21T11:41:28.000+01:00</time>
            </trkpt>
            <trkpt lat="37.592464" lon="-1.070215">
                <ele>16.154400</ele>
                <time>2009-03-21T11:42:07.000+01:00</time>
            </trkpt>
            <trkpt lat="37.592613" lon="-1.070193">
                <ele>16.764000</ele>
                <time>2009-03-21T11:42:15.000+01:00</time>
            </trkpt>
            <trkpt lat="37.592655" lon="-1.070192">
                <ele>17.068800</ele>
                <time>2009-03-21T11:42:17.000+01:00</time>
            </trkpt>
            <trkpt lat="37.593513" lon="-1.070007">
                <ele>19.507200</ele>
                <time>2009-03-21T11:42:51.000+01:00</time>
            </trkpt>
            <trkpt lat="37.593788" lon="-1.070050">
                <ele>18.592800</ele>
                <time>2009-03-21T11:43:00.000+01:00</time>
            </trkpt>
            <trkpt lat="37.593811" lon="-1.070052">
                <ele>18.288000</ele>
                <time>2009-03-21T11:43:01.000+01:00</time>
            </trkpt>
            <trkpt lat="37.594093" lon="-1.070153">
                <ele>19.202400</ele>
                <time>2009-03-21T11:43:15.000+01:00</time>
            </trkpt>
            <trkpt lat="37.594200" lon="-1.070145">
                <ele>21.031200</ele>
                <time>2009-03-21T11:43:20.000+01:00</time>
            </trkpt>
            <trkpt lat="37.594234" lon="-1.070172">
                <ele>21.945600</ele>
                <time>2009-03-21T11:43:22.000+01:00</time>
            </trkpt>
            <trkpt lat="37.594261" lon="-1.070235">
                <ele>24.079200</ele>
                <time>2009-03-21T11:43:25.000+01:00</time>
            </trkpt>
            <trkpt lat="37.594280" lon="-1.070308">
                <ele>27.127200</ele>
                <time>2009-03-21T11:43:33.000+01:00</time>
            </trkpt>
            <trkpt lat="37.595329" lon="-1.071138">
                <ele>37.795200</ele>
                <time>2009-03-21T11:45:59.000+01:00</time>
            </trkpt>
            <trkpt lat="37.595352" lon="-1.071147">
                <ele>38.100000</ele>
                <time>2009-03-21T11:46:01.000+01:00</time>
            </trkpt>
            <trkpt lat="37.595383" lon="-1.071127">
                <ele>40.233600</ele>
                <time>2009-03-21T11:46:13.000+01:00</time>
            </trkpt>
            <trkpt lat="37.595474" lon="-1.071090">
                <ele>39.319200</ele>
                <time>2009-03-21T11:46:20.000+01:00</time>
            </trkpt>
            <trkpt lat="37.596386" lon="-1.071242">
                <ele>33.223200</ele>
                <time>2009-03-21T11:46:50.000+01:00</time>
            </trkpt>
            <trkpt lat="37.596985" lon="-1.071310">
                <ele>33.223200</ele>
                <time>2009-03-21T11:47:09.000+01:00</time>
            </trkpt>
            <trkpt lat="37.597191" lon="-1.071295">
                <ele>33.528000</ele>
                <time>2009-03-21T11:47:17.000+01:00</time>
            </trkpt>
            <trkpt lat="37.597214" lon="-1.071295">
                <ele>33.528000</ele>
                <time>2009-03-21T11:47:18.000+01:00</time>
            </trkpt>
            <trkpt lat="37.597294" lon="-1.071293">
                <ele>33.528000</ele>
                <time>2009-03-21T11:47:21.000+01:00</time>
            </trkpt>
            <trkpt lat="37.598007" lon="-1.071463">
                <ele>34.747200</ele>
                <time>2009-03-21T11:47:50.000+01:00</time>
            </trkpt>
            <trkpt lat="37.598404" lon="-1.071218">
                <ele>38.404800</ele>
                <time>2009-03-21T11:48:09.000+01:00</time>
            </trkpt>
            <trkpt lat="37.598553" lon="-1.070835">
                <ele>41.757600</ele>
                <time>2009-03-21T11:48:24.000+01:00</time>
            </trkpt>
            <trkpt lat="37.598797" lon="-1.070774">
                <ele>42.062400</ele>
                <time>2009-03-21T11:48:29.000+01:00</time>
            </trkpt>
            <trkpt lat="37.598980" lon="-1.070632">
                <ele>41.757600</ele>
                <time>2009-03-21T11:48:40.000+01:00</time>
            </trkpt>
            <trkpt lat="37.599571" lon="-1.070346">
                <ele>38.709600</ele>
                <time>2009-03-21T11:49:13.000+01:00</time>
            </trkpt>
            <trkpt lat="37.600260" lon="-1.069687">
                <ele>39.319200</ele>
                <time>2009-03-21T11:49:42.000+01:00</time>
            </trkpt>
            <trkpt lat="37.600640" lon="-1.069367">
                <ele>45.720000</ele>
                <time>2009-03-21T11:50:16.000+01:00</time>
            </trkpt>
            <trkpt lat="37.601231" lon="-1.069011">
                <ele>42.062400</ele>
                <time>2009-03-21T11:50:44.000+01:00</time>
            </trkpt>
            <trkpt lat="37.601485" lon="-1.068815">
                <ele>43.586400</ele>
                <time>2009-03-21T11:50:52.000+01:00</time>
            </trkpt>
            <trkpt lat="37.601977" lon="-1.068601">
                <ele>46.634400</ele>
                <time>2009-03-21T11:51:29.000+01:00</time>
            </trkpt>
            <trkpt lat="37.602146" lon="-1.068654">
                <ele>46.634400</ele>
                <time>2009-03-21T11:51:31.000+01:00</time>
            </trkpt>
            <trkpt lat="37.602287" lon="-1.068671">
                <ele>46.634400</ele>
                <time>2009-03-21T11:51:37.000+01:00</time>
            </trkpt>
            <trkpt lat="37.602512" lon="-1.068777">
                <ele>46.634400</ele>
                <time>2009-03-21T11:51:51.000+01:00</time>
            </trkpt>
            <trkpt lat="37.603074" lon="-1.069292">
                <ele>47.853600</ele>
                <time>2009-03-21T11:52:23.000+01:00</time>
            </trkpt>
            <trkpt lat="37.603314" lon="-1.069469">
                <ele>46.634400</ele>
                <time>2009-03-21T11:52:30.000+01:00</time>
            </trkpt>
            <trkpt lat="37.603440" lon="-1.069576">
                <ele>49.987200</ele>
                <time>2009-03-21T11:52:49.000+01:00</time>
            </trkpt>
            <trkpt lat="37.603496" lon="-1.069665">
                <ele>49.987200</ele>
                <time>2009-03-21T11:52:50.000+01:00</time>
            </trkpt>
            <trkpt lat="37.603567" lon="-1.069664">
                <ele>49.682400</ele>
                <time>2009-03-21T11:52:51.000+01:00</time>
            </trkpt>
            <trkpt lat="37.603722" lon="-1.069700">
                <ele>50.292000</ele>
                <time>2009-03-21T11:52:54.000+01:00</time>
            </trkpt>
            <trkpt lat="37.603792" lon="-1.069629">
                <ele>50.596800</ele>
                <time>2009-03-21T11:52:59.000+01:00</time>
            </trkpt>
            <trkpt lat="37.603933" lon="-1.069628">
                <ele>50.901600</ele>
                <time>2009-03-21T11:53:01.000+01:00</time>
            </trkpt>
            <trkpt lat="37.604636" lon="-1.069361">
                <ele>49.987200</ele>
                <time>2009-03-21T11:53:40.000+01:00</time>
            </trkpt>
            <trkpt lat="37.605494" lon="-1.069057">
                <ele>55.168800</ele>
                <time>2009-03-21T11:54:44.000+01:00</time>
            </trkpt>
            <trkpt lat="37.605677" lon="-1.068950">
                <ele>53.340000</ele>
                <time>2009-03-21T11:55:02.000+01:00</time>
            </trkpt>
            <trkpt lat="37.605804" lon="-1.068879">
                <ele>53.340000</ele>
                <time>2009-03-21T11:55:03.000+01:00</time>
            </trkpt>
            <trkpt lat="37.605930" lon="-1.068825">
                <ele>54.254400</ele>
                <time>2009-03-21T11:55:10.000+01:00</time>
            </trkpt>
            <trkpt lat="37.606099" lon="-1.068736">
                <ele>54.254400</ele>
                <time>2009-03-21T11:55:11.000+01:00</time>
            </trkpt>
            <trkpt lat="37.606409" lon="-1.068647">
                <ele>56.692800</ele>
                <time>2009-03-21T11:55:32.000+01:00</time>
            </trkpt>
            <trkpt lat="37.606781" lon="-1.068568">
                <ele>58.826400</ele>
                <time>2009-03-21T11:55:51.000+01:00</time>
            </trkpt>
            <trkpt lat="37.606859" lon="-1.068415">
                <ele>60.045600</ele>
                <time>2009-03-21T11:57:20.000+01:00</time>
            </trkpt>
            <trkpt lat="37.607309" lon="-1.068023">
                <ele>60.960000</ele>
                <time>2009-03-21T18:35:24.000+01:00</time>
            </trkpt>
            <trkpt lat="37.607337" lon="-1.068023">
                <ele>64.617600</ele>
                <time>2009-03-21T11:58:24.000+01:00</time>
            </trkpt>
            <trkpt lat="37.607533" lon="-1.067988">
                <ele>70.408800</ele>
                <time>2009-03-21T11:59:58.000+01:00</time>
            </trkpt>
            <trkpt lat="37.607628" lon="-1.068060">
                <ele>70.104000</ele>
                <time>2009-03-21T12:00:02.000+01:00</time>
            </trkpt>
            <trkpt lat="37.607697" lon="-1.068068">
                <ele>69.189600</ele>
                <time>2009-03-21T12:00:04.000+01:00</time>
            </trkpt>
            <trkpt lat="37.607895" lon="-1.068083">
                <ele>68.884800</ele>
                <time>2009-03-21T12:00:12.000+01:00</time>
            </trkpt>
            <trkpt lat="37.607941" lon="-1.068087">
                <ele>68.275200</ele>
                <time>2009-03-21T12:00:14.000+01:00</time>
            </trkpt>
            <trkpt lat="37.607964" lon="-1.068088">
                <ele>67.970400</ele>
                <time>2009-03-21T12:00:15.000+01:00</time>
            </trkpt>
            <trkpt lat="37.608009" lon="-1.068090">
                <ele>67.970400</ele>
                <time>2009-03-21T12:00:17.000+01:00</time>
            </trkpt>
            <trkpt lat="37.608032" lon="-1.068092">
                <ele>67.665600</ele>
                <time>2009-03-21T12:00:18.000+01:00</time>
            </trkpt>
            <trkpt lat="37.608288" lon="-1.068218">
                <ele>68.580000</ele>
                <time>2009-03-21T12:00:34.000+01:00</time>
            </trkpt>
            <trkpt lat="37.608891" lon="-1.069092">
                <ele>68.580000</ele>
                <time>2009-03-21T12:01:03.000+01:00</time>
            </trkpt>
            <trkpt lat="37.609040" lon="-1.069496">
                <ele>67.665600</ele>
                <time>2009-03-21T12:01:10.000+01:00</time>
            </trkpt>
            <trkpt lat="37.609771" lon="-1.070028">
                <ele>72.237600</ele>
                <time>2009-03-21T12:01:36.000+01:00</time>
            </trkpt>
            <trkpt lat="37.610644" lon="-1.069511">
                <ele>76.200000</ele>
                <time>2009-03-21T12:02:10.000+01:00</time>
            </trkpt>
            <trkpt lat="37.611319" lon="-1.068781">
                <ele>80.467200</ele>
                <time>2009-03-21T12:02:48.000+01:00</time>
            </trkpt>
            <trkpt lat="37.611600" lon="-1.068248">
                <ele>80.467200</ele>
                <time>2009-03-21T12:03:06.000+01:00</time>
            </trkpt>
            <trkpt lat="37.611488" lon="-1.067455">
                <ele>85.648800</ele>
                <time>2009-03-21T12:03:28.000+01:00</time>
            </trkpt>
            <trkpt lat="37.611237" lon="-1.066437">
                <ele>93.573600</ele>
                <time>2009-03-21T12:04:11.000+01:00</time>
            </trkpt>
            <trkpt lat="37.611397" lon="-1.065930">
                <ele>96.316800</ele>
                <time>2009-03-21T12:04:32.000+01:00</time>
            </trkpt>
            <trkpt lat="37.612091" lon="-1.065173">
                <ele>92.964000</ele>
                <time>2009-03-21T12:04:59.000+01:00</time>
            </trkpt>
            <trkpt lat="37.612652" lon="-1.064258">
                <ele>94.183200</ele>
                <time>2009-03-21T12:05:31.000+01:00</time>
            </trkpt>
            <trkpt lat="37.613235" lon="-1.063358">
                <ele>97.536000</ele>
                <time>2009-03-21T12:06:20.000+01:00</time>
            </trkpt>
            <trkpt lat="37.613888" lon="-1.062562">
                <ele>97.840800</ele>
                <time>2009-03-21T12:06:54.000+01:00</time>
            </trkpt>
            <trkpt lat="37.614407" lon="-1.061897">
                <ele>102.108000</ele>
                <time>2009-03-21T12:07:20.000+01:00</time>
            </trkpt>
            <trkpt lat="37.614349" lon="-1.061553">
                <ele>103.022400</ele>
                <time>2009-03-21T12:07:30.000+01:00</time>
            </trkpt>
            <trkpt lat="37.614353" lon="-1.061497">
                <ele>103.327200</ele>
                <time>2009-03-21T12:07:37.000+01:00</time>
            </trkpt>
            <trkpt lat="37.614372" lon="-1.061495">
                <ele>102.717600</ele>
                <time>2009-03-21T12:07:38.000+01:00</time>
            </trkpt>
            <trkpt lat="37.614498" lon="-1.061490">
                <ele>101.498400</ele>
                <time>2009-03-21T12:07:41.000+01:00</time>
            </trkpt>
            <trkpt lat="37.614578" lon="-1.061430">
                <ele>101.193600</ele>
                <time>2009-03-21T12:07:43.000+01:00</time>
            </trkpt>
            <trkpt lat="37.614868" lon="-1.060325">
                <ele>96.316800</ele>
                <time>2009-03-21T12:08:08.000+01:00</time>
            </trkpt>
            <trkpt lat="37.614990" lon="-1.059323">
                <ele>95.707200</ele>
                <time>2009-03-21T12:08:30.000+01:00</time>
            </trkpt>
            <trkpt lat="37.614944" lon="-1.058525">
                <ele>96.621600</ele>
                <time>2009-03-21T12:08:52.000+01:00</time>
            </trkpt>
            <trkpt lat="37.615067" lon="-1.057928">
                <ele>91.440000</ele>
                <time>2009-03-21T12:14:30.000+01:00</time>
            </trkpt>
            <trkpt lat="37.614975" lon="-1.056795">
                <ele>94.792800</ele>
                <time>2009-03-21T12:14:58.000+01:00</time>
            </trkpt>
            <trkpt lat="37.614819" lon="-1.055983">
                <ele>92.049600</ele>
                <time>2009-03-21T12:15:28.000+01:00</time>
            </trkpt>
            <trkpt lat="37.614891" lon="-1.055672">
                <ele>91.440000</ele>
                <time>2009-03-21T12:15:39.000+01:00</time>
            </trkpt>
            <trkpt lat="37.615036" lon="-1.054527">
                <ele>89.611200</ele>
                <time>2009-03-21T12:16:11.000+01:00</time>
            </trkpt>
            <trkpt lat="37.614971" lon="-1.053345">
                <ele>92.354400</ele>
                <time>2009-03-21T12:16:42.000+01:00</time>
            </trkpt>
            <trkpt lat="37.614735" lon="-1.052232">
                <ele>93.573600</ele>
                <time>2009-03-21T12:17:09.000+01:00</time>
            </trkpt>
            <trkpt lat="37.614525" lon="-1.051060">
                <ele>98.450400</ele>
                <time>2009-03-21T12:17:38.000+01:00</time>
            </trkpt>
            <trkpt lat="37.614254" lon="-1.050067">
                <ele>99.364800</ele>
                <time>2009-03-21T12:18:03.000+01:00</time>
            </trkpt>
            <trkpt lat="37.613754" lon="-1.049330">
                <ele>94.488000</ele>
                <time>2009-03-21T12:18:22.000+01:00</time>
            </trkpt>
            <trkpt lat="37.613834" lon="-1.048202">
                <ele>88.087200</ele>
                <time>2009-03-21T12:18:39.000+01:00</time>
            </trkpt>
            <trkpt lat="37.613796" lon="-1.047938">
                <ele>87.477600</ele>
                <time>2009-03-21T12:18:42.000+01:00</time>
            </trkpt>
            <trkpt lat="37.613708" lon="-1.047230">
                <ele>83.515200</ele>
                <time>2009-03-21T12:18:49.000+01:00</time>
            </trkpt>
            <trkpt lat="37.613945" lon="-1.046098">
                <ele>80.772000</ele>
                <time>2009-03-21T12:19:00.000+01:00</time>
            </trkpt>
            <trkpt lat="37.613697" lon="-1.044993">
                <ele>79.248000</ele>
                <time>2009-03-21T12:19:12.000+01:00</time>
            </trkpt>
            <trkpt lat="37.613506" lon="-1.044782">
                <ele>80.772000</ele>
                <time>2009-03-21T12:19:16.000+01:00</time>
            </trkpt>
            <trkpt lat="37.612686" lon="-1.044275">
                <ele>80.772000</ele>
                <time>2009-03-21T12:19:27.000+01:00</time>
            </trkpt>
            <trkpt lat="37.611885" lon="-1.043712">
                <ele>79.857600</ele>
                <time>2009-03-21T12:19:38.000+01:00</time>
            </trkpt>
            <trkpt lat="37.611851" lon="-1.043713">
                <ele>78.943200</ele>
                <time>2009-03-21T12:19:40.000+01:00</time>
            </trkpt>
            <trkpt lat="37.611824" lon="-1.043702">
                <ele>77.114400</ele>
                <time>2009-03-21T12:19:42.000+01:00</time>
            </trkpt>
            <trkpt lat="37.611568" lon="-1.043537">
                <ele>70.408800</ele>
                <time>2009-03-21T12:20:10.000+01:00</time>
            </trkpt>
            <trkpt lat="37.610653" lon="-1.043662">
                <ele>67.665600</ele>
                <time>2009-03-21T12:20:26.000+01:00</time>
            </trkpt>
            <trkpt lat="37.610146" lon="-1.043665">
                <ele>65.532000</ele>
                <time>2009-03-21T12:20:35.000+01:00</time>
            </trkpt>
            <trkpt lat="37.609272" lon="-1.043313">
                <ele>69.189600</ele>
                <time>2009-03-21T12:21:07.000+01:00</time>
            </trkpt>
            <trkpt lat="37.609135" lon="-1.043215">
                <ele>71.018400</ele>
                <time>2009-03-21T12:21:12.000+01:00</time>
            </trkpt>
            <trkpt lat="37.609005" lon="-1.043002">
                <ele>76.504800</ele>
                <time>2009-03-21T12:21:20.000+01:00</time>
            </trkpt>
            <trkpt lat="37.608116" lon="-1.042768">
                <ele>81.991200</ele>
                <time>2009-03-21T12:21:49.000+01:00</time>
            </trkpt>
            <trkpt lat="37.607204" lon="-1.042427">
                <ele>80.162400</ele>
                <time>2009-03-21T12:22:19.000+01:00</time>
            </trkpt>
            <trkpt lat="37.606258" lon="-1.042538">
                <ele>89.306400</ele>
                <time>2009-03-21T12:22:51.000+01:00</time>
            </trkpt>
            <trkpt lat="37.605896" lon="-1.042580">
                <ele>94.792800</ele>
                <time>2009-03-21T12:23:04.000+01:00</time>
            </trkpt>
            <trkpt lat="37.605862" lon="-1.042523">
                <ele>94.183200</ele>
                <time>2009-03-21T12:23:06.000+01:00</time>
            </trkpt>
            <trkpt lat="37.605824" lon="-1.041368">
                <ele>89.916000</ele>
                <time>2009-03-21T12:23:31.000+01:00</time>
            </trkpt>
            <trkpt lat="37.605850" lon="-1.040200">
                <ele>83.820000</ele>
                <time>2009-03-21T12:23:47.000+01:00</time>
            </trkpt>
            <trkpt lat="37.606091" lon="-1.039303">
                <ele>80.772000</ele>
                <time>2009-03-21T12:24:07.000+01:00</time>
            </trkpt>
            <trkpt lat="37.605682" lon="-1.038247">
                <ele>83.210400</ele>
                <time>2009-03-21T12:24:30.000+01:00</time>
            </trkpt>
            <trkpt lat="37.605267" lon="-1.037197">
                <ele>85.039200</ele>
                <time>2009-03-21T12:24:54.000+01:00</time>
            </trkpt>
            <trkpt lat="37.604805" lon="-1.036203">
                <ele>78.333600</ele>
                <time>2009-03-21T12:25:16.000+01:00</time>
            </trkpt>
            <trkpt lat="37.604027" lon="-1.035563">
                <ele>84.124800</ele>
                <time>2009-03-21T12:25:38.000+01:00</time>
            </trkpt>
            <trkpt lat="37.603695" lon="-1.034473">
                <ele>85.953600</ele>
                <time>2009-03-21T12:28:07.000+01:00</time>
            </trkpt>
            <trkpt lat="37.603725" lon="-1.034178">
                <ele>85.648800</ele>
                <time>2009-03-21T12:28:15.000+01:00</time>
            </trkpt>
            <trkpt lat="37.604187" lon="-1.033132">
                <ele>82.296000</ele>
                <time>2009-03-21T12:28:34.000+01:00</time>
            </trkpt>
            <trkpt lat="37.604401" lon="-1.032003">
                <ele>77.419200</ele>
                <time>2009-03-21T12:28:48.000+01:00</time>
            </trkpt>
            <trkpt lat="37.604321" lon="-1.031265">
                <ele>74.676000</ele>
                <time>2009-03-21T12:28:57.000+01:00</time>
            </trkpt>
            <trkpt lat="37.603912" lon="-1.030190">
                <ele>77.724000</ele>
                <time>2009-03-21T12:29:12.000+01:00</time>
            </trkpt>
            <trkpt lat="37.603500" lon="-1.029163">
                <ele>78.943200</ele>
                <time>2009-03-21T12:29:36.000+01:00</time>
            </trkpt>
            <trkpt lat="37.603054" lon="-1.028163">
                <ele>64.617600</ele>
                <time>2009-03-21T12:31:05.000+01:00</time>
            </trkpt>
            <trkpt lat="37.602848" lon="-1.027553">
                <ele>72.237600</ele>
                <time>2009-03-21T12:31:25.000+01:00</time>
            </trkpt>
            <trkpt lat="37.602783" lon="-1.027468">
                <ele>72.847200</ele>
                <time>2009-03-21T12:31:28.000+01:00</time>
            </trkpt>
            <trkpt lat="37.602821" lon="-1.027375">
                <ele>73.761600</ele>
                <time>2009-03-21T12:31:31.000+01:00</time>
            </trkpt>
            <trkpt lat="37.603439" lon="-1.026478">
                <ele>85.953600</ele>
                <time>2009-03-21T12:31:51.000+01:00</time>
            </trkpt>
            <trkpt lat="37.604019" lon="-1.025585">
                <ele>78.638400</ele>
                <time>2009-03-21T12:32:06.000+01:00</time>
            </trkpt>
            <trkpt lat="37.604599" lon="-1.024713">
                <ele>66.446400</ele>
                <time>2009-03-21T12:32:21.000+01:00</time>
            </trkpt>
            <trkpt lat="37.605274" lon="-1.023903">
                <ele>69.494400</ele>
                <time>2009-03-21T12:32:42.000+01:00</time>
            </trkpt>
            <trkpt lat="37.605896" lon="-1.023007">
                <ele>58.826400</ele>
                <time>2009-03-21T12:32:57.000+01:00</time>
            </trkpt>
            <trkpt lat="37.606373" lon="-1.022033">
                <ele>52.730400</ele>
                <time>2009-03-21T12:33:23.000+01:00</time>
            </trkpt>
            <trkpt lat="37.607033" lon="-1.021233">
                <ele>57.912000</ele>
                <time>2009-03-21T12:33:44.000+01:00</time>
            </trkpt>
            <trkpt lat="37.607635" lon="-1.020388">
                <ele>60.655200</ele>
                <time>2009-03-21T12:34:07.000+01:00</time>
            </trkpt>
            <trkpt lat="37.608120" lon="-1.019360">
                <ele>51.206400</ele>
                <time>2009-03-21T12:34:28.000+01:00</time>
            </trkpt>
            <trkpt lat="37.608505" lon="-1.018327">
                <ele>54.559200</ele>
                <time>2009-03-21T12:34:51.000+01:00</time>
            </trkpt>
            <trkpt lat="37.608627" lon="-1.018005">
                <ele>58.521600</ele>
                <time>2009-03-21T12:35:00.000+01:00</time>
            </trkpt>
            <trkpt lat="37.608810" lon="-1.017712">
                <ele>61.569600</ele>
                <time>2009-03-21T12:35:11.000+01:00</time>
            </trkpt>
            <trkpt lat="37.608814" lon="-1.017655">
                <ele>60.655200</ele>
                <time>2009-03-21T12:35:14.000+01:00</time>
            </trkpt>
            <trkpt lat="37.608822" lon="-1.017452">
                <ele>60.045600</ele>
                <time>2009-03-21T12:35:21.000+01:00</time>
            </trkpt>
            <trkpt lat="37.609364" lon="-1.016528">
                <ele>53.949600</ele>
                <time>2009-03-21T12:35:43.000+01:00</time>
            </trkpt>
            <trkpt lat="37.609859" lon="-1.015558">
                <ele>49.987200</ele>
                <time>2009-03-21T12:36:04.000+01:00</time>
            </trkpt>
            <trkpt lat="37.610382" lon="-1.014547">
                <ele>44.500800</ele>
                <time>2009-03-21T12:36:22.000+01:00</time>
            </trkpt>
            <trkpt lat="37.610817" lon="-1.013498">
                <ele>43.586400</ele>
                <time>2009-03-21T12:36:38.000+01:00</time>
            </trkpt>
            <trkpt lat="37.611340" lon="-1.012532">
                <ele>42.672000</ele>
                <time>2009-03-21T12:36:52.000+01:00</time>
            </trkpt>
            <trkpt lat="37.611492" lon="-1.012268">
                <ele>39.928800</ele>
                <time>2009-03-21T12:36:58.000+01:00</time>
            </trkpt>
            <trkpt lat="37.611473" lon="-1.012157">
                <ele>40.538400</ele>
                <time>2009-03-21T12:37:02.000+01:00</time>
            </trkpt>
            <trkpt lat="37.611824" lon="-1.011427">
                <ele>42.367200</ele>
                <time>2009-03-21T12:37:20.000+01:00</time>
            </trkpt>
            <trkpt lat="37.611862" lon="-1.011118">
                <ele>37.795200</ele>
                <time>2009-03-21T12:37:26.000+01:00</time>
            </trkpt>
            <trkpt lat="37.612003" lon="-1.010962">
                <ele>38.404800</ele>
                <time>2009-03-21T12:37:30.000+01:00</time>
            </trkpt>
            <trkpt lat="37.612286" lon="-1.010717">
                <ele>35.966400</ele>
                <time>2009-03-21T12:37:36.000+01:00</time>
            </trkpt>
            <trkpt lat="37.612782" lon="-1.009695">
                <ele>22.860000</ele>
                <time>2009-03-21T12:37:51.000+01:00</time>
            </trkpt>
            <trkpt lat="37.613232" lon="-1.008685">
                <ele>28.956000</ele>
                <time>2009-03-21T12:38:15.000+01:00</time>
            </trkpt>
        </trkseg>
    </trk>
</gpx>